sensor_id;sensor_type;location;lat;lon;timestamp;P1;durP1;ratioP1;P2;durP2;ratioP2
2728;SDS011;1372;47.956;7.830;2023-07-09T00:02:14;4.93;;;3.63;;
2728;SDS011;1372;47.956;7.830;2023-07-09T00:04:44;4.67;;;3.60;;
2728;SDS011;1372;47.956;7.830;2023-07-09T00:07:15;5.53;;;3.07;;
2728;SDS011;1372;47.956;7.830;2023-07-09T00:09:49;4.13;;;3.73;;
2728;SDS011;1372;47.956;7.830;2023-07-09T00:12:19;4.20;;;3.33;;
2728;SDS011;1372;47.956;7.830;2023-07-09T00:14:48;3.93;;;3.60;;
2728;SDS011;1372;47.956;7.830;2023-07-09T00:17:21;4.07;;;3.60;;
2728;SDS011;1372;47.956;7.830;2023-07-09T00:19:54;5.00;;;3.90;;
2728;SDS011;1372;47.956;7.830;2023-07-09T00:22:25;4.37;;;3.57;;
2728;SDS011;1372;47.956;7.830;2023-07-09T00:24:57;4.23;;;3.70;;
2728;SDS011;1372;47.956;7.830;2023-07-09T00:27:27;4.53;;;3.60;;
2728;SDS011;1372;47.956;7.830;2023-07-09T00:29:57;3.93;;;3.23;;
2728;SDS011;1372;47.956;7.830;2023-07-09T00:32:28;4.30;;;3.43;;
2728;SDS011;1372;47.956;7.830;2023-07-09T00:35:00;3.87;;;3.57;;
2728;SDS011;1372;47.956;7.830;2023-07-09T00:37:31;3.60;;;3.30;;
2728;SDS011;1372;47.956;7.830;2023-07-09T00:40:00;3.90;;;2.97;;
2728;SDS011;1372;47.956;7.830;2023-07-09T00:42:29;3.73;;;3.30;;
2728;SDS011;1372;47.956;7.830;2023-07-09T00:44:58;7.17;;;3.60;;
2728;SDS011;1372;47.956;7.830;2023-07-09T00:47:34;3.50;;;3.00;;
2728;SDS011;1372;47.956;7.830;2023-07-09T00:50:15;4.90;;;3.30;;
2728;SDS011;1372;47.956;7.830;2023-07-09T00:53:02;3.20;;;2.90;;
2728;SDS011;1372;47.956;7.830;2023-07-09T00:55:37;3.17;;;2.80;;
2728;SDS011;1372;47.956;7.830;2023-07-09T00:58:11;8.17;;;3.77;;
2728;SDS011;1372;47.956;7.830;2023-07-09T01:00:44;4.40;;;3.60;;
2728;SDS011;1372;47.956;7.830;2023-07-09T01:03:21;3.80;;;3.00;;
2728;SDS011;1372;47.956;7.830;2023-07-09T01:16:02;3.33;;;3.03;;
2728;SDS011;1372;47.956;7.830;2023-07-09T01:18:34;5.70;;;3.30;;
2728;SDS011;1372;47.956;7.830;2023-07-09T01:21:07;5.13;;;3.10;;
2728;SDS011;1372;47.956;7.830;2023-07-09T01:23:42;4.77;;;3.70;;
2728;SDS011;1372;47.956;7.830;2023-07-09T01:26:11;3.77;;;3.20;;
2728;SDS011;1372;47.956;7.830;2023-07-09T01:28:42;5.00;;;3.70;;
2728;SDS011;1372;47.956;7.830;2023-07-09T01:31:11;3.77;;;3.40;;
2728;SDS011;1372;47.956;7.830;2023-07-09T01:33:43;3.37;;;3.07;;
2728;SDS011;1372;47.956;7.830;2023-07-09T01:36:15;3.77;;;3.40;;
2728;SDS011;1372;47.956;7.830;2023-07-09T01:38:52;5.40;;;4.10;;
2728;SDS011;1372;47.956;7.830;2023-07-09T01:41:21;3.97;;;3.30;;
2728;SDS011;1372;47.956;7.830;2023-07-09T01:43:50;4.27;;;3.57;;
2728;SDS011;1372;47.956;7.830;2023-07-09T01:46:19;4.27;;;3.60;;
2728;SDS011;1372;47.956;7.830;2023-07-09T01:48:48;3.50;;;3.20;;
2728;SDS011;1372;47.956;7.830;2023-07-09T01:51:21;5.53;;;3.70;;
2728;SDS011;1372;47.956;7.830;2023-07-09T01:53:51;4.40;;;3.30;;
2728;SDS011;1372;47.956;7.830;2023-07-09T01:56:20;3.87;;;3.57;;
2728;SDS011;1372;47.956;7.830;2023-07-09T01:58:51;5.33;;;3.80;;
2728;SDS011;1372;47.956;7.830;2023-07-09T02:01:28;4.80;;;3.20;;
2728;SDS011;1372;47.956;7.830;2023-07-09T02:03:59;4.70;;;3.40;;
2728;SDS011;1372;47.956;7.830;2023-07-09T02:06:30;4.17;;;3.30;;
2728;SDS011;1372;47.956;7.830;2023-07-09T02:08:59;3.97;;;3.50;;
2728;SDS011;1372;47.956;7.830;2023-07-09T02:11:27;4.07;;;3.17;;
2728;SDS011;1372;47.956;7.830;2023-07-09T02:13:57;3.43;;;3.10;;
2728;SDS011;1372;47.956;7.830;2023-07-09T02:16:25;3.60;;;3.30;;
2728;SDS011;1372;47.956;7.830;2023-07-09T02:18:54;4.37;;;3.67;;
2728;SDS011;1372;47.956;7.830;2023-07-09T02:21:23;5.47;;;3.50;;
2728;SDS011;1372;47.956;7.830;2023-07-09T02:23:58;4.50;;;3.47;;
2728;SDS011;1372;47.956;7.830;2023-07-09T02:26:26;6.00;;;3.70;;
2728;SDS011;1372;47.956;7.830;2023-07-09T02:28:55;5.17;;;3.90;;
2728;SDS011;1372;47.956;7.830;2023-07-09T02:31:24;5.07;;;3.70;;
2728;SDS011;1372;47.956;7.830;2023-07-09T02:33:57;3.63;;;3.33;;
2728;SDS011;1372;47.956;7.830;2023-07-09T02:36:25;4.50;;;3.07;;
2728;SDS011;1372;47.956;7.830;2023-07-09T02:38:58;5.37;;;4.20;;
2728;SDS011;1372;47.956;7.830;2023-07-09T02:41:29;4.20;;;3.53;;
2728;SDS011;1372;47.956;7.830;2023-07-09T02:43:59;3.67;;;3.37;;
2728;SDS011;1372;47.956;7.830;2023-07-09T02:46:30;4.40;;;3.40;;
2728;SDS011;1372;47.956;7.830;2023-07-09T02:48:59;6.03;;;3.40;;
2728;SDS011;1372;47.956;7.830;2023-07-09T02:51:28;5.23;;;4.37;;
2728;SDS011;1372;47.956;7.830;2023-07-09T02:54:02;5.70;;;4.00;;
2728;SDS011;1372;47.956;7.830;2023-07-09T02:56:31;5.13;;;3.97;;
2728;SDS011;1372;47.956;7.830;2023-07-09T02:59:01;4.97;;;4.00;;
2728;SDS011;1372;47.956;7.830;2023-07-09T03:01:30;3.63;;;2.90;;
2728;SDS011;1372;47.956;7.830;2023-07-09T03:04:03;3.90;;;3.13;;
2728;SDS011;1372;47.956;7.830;2023-07-09T03:06:32;4.20;;;3.90;;
2728;SDS011;1372;47.956;7.830;2023-07-09T03:09:04;4.17;;;3.20;;
2728;SDS011;1372;47.956;7.830;2023-07-09T03:11:34;4.00;;;3.60;;
2728;SDS011;1372;47.956;7.830;2023-07-09T03:14:05;4.00;;;3.60;;
2728;SDS011;1372;47.956;7.830;2023-07-09T03:16:34;4.50;;;3.47;;
2728;SDS011;1372;47.956;7.830;2023-07-09T03:19:03;4.43;;;4.03;;
2728;SDS011;1372;47.956;7.830;2023-07-09T03:21:32;4.30;;;3.83;;
2728;SDS011;1372;47.956;7.830;2023-07-09T03:24:02;4.13;;;3.40;;
2728;SDS011;1372;47.956;7.830;2023-07-09T03:26:34;3.87;;;2.80;;
2728;SDS011;1372;47.956;7.830;2023-07-09T03:29:05;4.83;;;3.73;;
2728;SDS011;1372;47.956;7.830;2023-07-09T03:31:36;3.70;;;3.10;;
2728;SDS011;1372;47.956;7.830;2023-07-09T03:34:05;4.40;;;3.50;;
2728;SDS011;1372;47.956;7.830;2023-07-09T03:36:36;4.00;;;3.60;;
2728;SDS011;1372;47.956;7.830;2023-07-09T03:39:07;4.30;;;3.67;;
2728;SDS011;1372;47.956;7.830;2023-07-09T03:41:36;3.60;;;3.30;;
2728;SDS011;1372;47.956;7.830;2023-07-09T03:44:05;4.17;;;3.60;;
2728;SDS011;1372;47.956;7.830;2023-07-09T03:46:39;5.17;;;4.30;;
2728;SDS011;1372;47.956;7.830;2023-07-09T03:49:08;4.23;;;3.13;;
2728;SDS011;1372;47.956;7.830;2023-07-09T03:51:36;5.00;;;4.00;;
2728;SDS011;1372;47.956;7.830;2023-07-09T03:54:05;4.03;;;3.63;;
2728;SDS011;1372;47.956;7.830;2023-07-09T03:56:37;5.00;;;3.10;;
2728;SDS011;1372;47.956;7.830;2023-07-09T03:59:06;4.93;;;3.60;;
2728;SDS011;1372;47.956;7.830;2023-07-09T04:01:38;4.17;;;3.57;;
2728;SDS011;1372;47.956;7.830;2023-07-09T04:04:13;4.30;;;3.87;;
2728;SDS011;1372;47.956;7.830;2023-07-09T04:06:42;5.00;;;3.33;;
2728;SDS011;1372;47.956;7.830;2023-07-09T04:09:12;4.73;;;3.90;;
2728;SDS011;1372;47.956;7.830;2023-07-09T04:11:41;3.97;;;3.60;;
2728;SDS011;1372;47.956;7.830;2023-07-09T04:14:10;4.90;;;3.17;;
2728;SDS011;1372;47.956;7.830;2023-07-09T04:16:39;3.80;;;3.50;;
2728;SDS011;1372;47.956;7.830;2023-07-09T04:19:11;6.50;;;4.27;;
2728;SDS011;1372;47.956;7.830;2023-07-09T04:21:39;6.57;;;4.07;;
2728;SDS011;1372;47.956;7.830;2023-07-09T04:24:08;3.77;;;3.37;;
2728;SDS011;1372;47.956;7.830;2023-07-09T04:26:39;4.70;;;3.90;;
2728;SDS011;1372;47.956;7.830;2023-07-09T04:29:07;5.73;;;3.50;;
2728;SDS011;1372;47.956;7.830;2023-07-09T04:31:40;4.60;;;4.00;;
2728;SDS011;1372;47.956;7.830;2023-07-09T04:34:11;5.13;;;3.70;;
2728;SDS011;1372;47.956;7.830;2023-07-09T04:36:43;4.80;;;4.20;;
2728;SDS011;1372;47.956;7.830;2023-07-09T04:39:12;4.40;;;3.47;;
2728;SDS011;1372;47.956;7.830;2023-07-09T04:41:43;3.87;;;3.47;;
2728;SDS011;1372;47.956;7.830;2023-07-09T04:44:12;3.87;;;3.40;;
2728;SDS011;1372;47.956;7.830;2023-07-09T04:46:40;5.30;;;3.80;;
2728;SDS011;1372;47.956;7.830;2023-07-09T04:49:09;4.90;;;3.70;;
2728;SDS011;1372;47.956;7.830;2023-07-09T04:51:39;3.80;;;3.40;;
2728;SDS011;1372;47.956;7.830;2023-07-09T04:54:08;3.90;;;3.50;;
2728;SDS011;1372;47.956;7.830;2023-07-09T04:56:37;5.07;;;3.70;;
2728;SDS011;1372;47.956;7.830;2023-07-09T04:59:07;5.10;;;3.20;;
2728;SDS011;1372;47.956;7.830;2023-07-09T05:01:36;4.73;;;4.07;;
2728;SDS011;1372;47.956;7.830;2023-07-09T05:04:05;4.97;;;3.90;;
2728;SDS011;1372;47.956;7.830;2023-07-09T05:06:34;3.53;;;2.93;;
2728;SDS011;1372;47.956;7.830;2023-07-09T05:09:03;10.57;;;4.30;;
2728;SDS011;1372;47.956;7.830;2023-07-09T05:11:33;4.20;;;3.80;;
2728;SDS011;1372;47.956;7.830;2023-07-09T05:14:03;4.63;;;4.23;;
2728;SDS011;1372;47.956;7.830;2023-07-09T05:16:33;4.17;;;2.93;;
2728;SDS011;1372;47.956;7.830;2023-07-09T05:19:02;3.97;;;3.03;;
2728;SDS011;1372;47.956;7.830;2023-07-09T05:21:31;5.03;;;3.67;;
2728;SDS011;1372;47.956;7.830;2023-07-09T05:24:04;4.87;;;3.53;;
2728;SDS011;1372;47.956;7.830;2023-07-09T05:26:33;4.73;;;3.70;;
2728;SDS011;1372;47.956;7.830;2023-07-09T05:29:03;4.50;;;4.07;;
2728;SDS011;1372;47.956;7.830;2023-07-09T05:31:33;3.70;;;3.43;;
2728;SDS011;1372;47.956;7.830;2023-07-09T05:34:03;4.83;;;3.67;;
2728;SDS011;1372;47.956;7.830;2023-07-09T05:36:32;4.10;;;3.40;;
2728;SDS011;1372;47.956;7.830;2023-07-09T05:39:01;4.40;;;4.00;;
2728;SDS011;1372;47.956;7.830;2023-07-09T05:41:34;4.43;;;3.67;;
2728;SDS011;1372;47.956;7.830;2023-07-09T05:44:03;4.20;;;3.43;;
2728;SDS011;1372;47.956;7.830;2023-07-09T05:46:35;4.03;;;3.63;;
2728;SDS011;1372;47.956;7.830;2023-07-09T05:49:05;5.23;;;3.83;;
2728;SDS011;1372;47.956;7.830;2023-07-09T05:51:34;5.90;;;3.97;;
2728;SDS011;1372;47.956;7.830;2023-07-09T05:54:04;3.70;;;3.30;;
2728;SDS011;1372;47.956;7.830;2023-07-09T05:56:35;4.07;;;3.70;;
2728;SDS011;1372;47.956;7.830;2023-07-09T05:59:07;4.50;;;3.40;;
2728;SDS011;1372;47.956;7.830;2023-07-09T06:01:38;5.17;;;3.90;;
2728;SDS011;1372;47.956;7.830;2023-07-09T06:04:07;5.30;;;4.07;;
2728;SDS011;1372;47.956;7.830;2023-07-09T06:06:36;5.87;;;4.33;;
2728;SDS011;1372;47.956;7.830;2023-07-09T06:09:05;4.53;;;3.13;;
2728;SDS011;1372;47.956;7.830;2023-07-09T06:11:34;4.50;;;4.10;;
2728;SDS011;1372;47.956;7.830;2023-07-09T06:14:03;4.10;;;3.70;;
2728;SDS011;1372;47.956;7.830;2023-07-09T06:16:37;4.67;;;4.27;;
2728;SDS011;1372;47.956;7.830;2023-07-09T06:19:06;4.27;;;3.80;;
2728;SDS011;1372;47.956;7.830;2023-07-09T06:21:35;5.30;;;4.13;;
2728;SDS011;1372;47.956;7.830;2023-07-09T06:24:05;4.70;;;3.43;;
2728;SDS011;1372;47.956;7.830;2023-07-09T06:26:36;4.63;;;4.10;;
2728;SDS011;1372;47.956;7.830;2023-07-09T06:29:05;5.27;;;4.37;;
2728;SDS011;1372;47.956;7.830;2023-07-09T06:31:38;3.80;;;3.50;;
2728;SDS011;1372;47.956;7.830;2023-07-09T06:34:07;5.80;;;3.60;;
2728;SDS011;1372;47.956;7.830;2023-07-09T06:36:37;7.47;;;4.40;;
2728;SDS011;1372;47.956;7.830;2023-07-09T06:39:08;4.37;;;3.97;;
2728;SDS011;1372;47.956;7.830;2023-07-09T06:41:37;4.50;;;4.10;;
2728;SDS011;1372;47.956;7.830;2023-07-09T06:44:06;6.27;;;4.30;;
2728;SDS011;1372;47.956;7.830;2023-07-09T06:46:37;5.83;;;3.70;;
2728;SDS011;1372;47.956;7.830;2023-07-09T06:49:09;4.57;;;4.07;;
2728;SDS011;1372;47.956;7.830;2023-07-09T06:51:38;4.97;;;4.40;;
2728;SDS011;1372;47.956;7.830;2023-07-09T06:54:06;4.67;;;4.10;;
2728;SDS011;1372;47.956;7.830;2023-07-09T06:56:35;4.70;;;4.30;;
2728;SDS011;1372;47.956;7.830;2023-07-09T06:59:04;4.87;;;4.40;;
2728;SDS011;1372;47.956;7.830;2023-07-09T07:01:33;4.47;;;4.07;;
2728;SDS011;1372;47.956;7.830;2023-07-09T07:04:04;4.40;;;4.00;;
2728;SDS011;1372;47.956;7.830;2023-07-09T07:06:33;7.00;;;4.73;;
2728;SDS011;1372;47.956;7.830;2023-07-09T07:09:02;5.20;;;4.47;;
2728;SDS011;1372;47.956;7.830;2023-07-09T07:11:31;4.53;;;4.13;;
2728;SDS011;1372;47.956;7.830;2023-07-09T07:14:03;4.67;;;4.20;;
2728;SDS011;1372;47.956;7.830;2023-07-09T07:16:32;4.57;;;4.07;;
2728;SDS011;1372;47.956;7.830;2023-07-09T07:19:01;5.07;;;4.43;;
2728;SDS011;1372;47.956;7.830;2023-07-09T07:21:32;4.40;;;4.00;;
2728;SDS011;1372;47.956;7.830;2023-07-09T07:24:01;4.90;;;4.50;;
2728;SDS011;1372;47.956;7.830;2023-07-09T07:26:31;5.97;;;5.37;;
2728;SDS011;1372;47.956;7.830;2023-07-09T07:29:02;4.83;;;4.40;;
2728;SDS011;1372;47.956;7.830;2023-07-09T07:31:31;5.10;;;4.70;;
2728;SDS011;1372;47.956;7.830;2023-07-09T07:34:00;4.80;;;4.40;;
2728;SDS011;1372;47.956;7.830;2023-07-09T07:36:33;5.07;;;4.40;;
2728;SDS011;1372;47.956;7.830;2023-07-09T07:39:06;4.27;;;3.97;;
2728;SDS011;1372;47.956;7.830;2023-07-09T07:41:37;5.80;;;4.30;;
2728;SDS011;1372;47.956;7.830;2023-07-09T07:44:09;6.20;;;4.50;;
2728;SDS011;1372;47.956;7.830;2023-07-09T07:46:39;5.30;;;4.80;;
2728;SDS011;1372;47.956;7.830;2023-07-09T07:49:10;4.67;;;4.07;;
2728;SDS011;1372;47.956;7.830;2023-07-09T07:51:41;5.63;;;5.13;;
2728;SDS011;1372;47.956;7.830;2023-07-09T07:54:11;5.57;;;4.93;;
2728;SDS011;1372;47.956;7.830;2023-07-09T07:56:41;5.33;;;4.83;;
2728;SDS011;1372;47.956;7.830;2023-07-09T07:59:10;5.43;;;4.70;;
2728;SDS011;1372;47.956;7.830;2023-07-09T08:01:39;5.97;;;5.40;;
2728;SDS011;1372;47.956;7.830;2023-07-09T08:04:08;4.97;;;4.40;;
2728;SDS011;1372;47.956;7.830;2023-07-09T08:06:39;5.93;;;4.90;;
2728;SDS011;1372;47.956;7.830;2023-07-09T08:09:09;5.60;;;5.10;;
2728;SDS011;1372;47.956;7.830;2023-07-09T08:11:39;6.63;;;6.03;;
2728;SDS011;1372;47.956;7.830;2023-07-09T08:14:07;5.90;;;5.40;;
2728;SDS011;1372;47.956;7.830;2023-07-09T08:16:37;5.77;;;5.27;;
2728;SDS011;1372;47.956;7.830;2023-07-09T08:19:06;5.70;;;5.20;;
2728;SDS011;1372;47.956;7.830;2023-07-09T08:21:36;5.67;;;5.17;;
2728;SDS011;1372;47.956;7.830;2023-07-09T08:24:09;5.20;;;4.70;;
2728;SDS011;1372;47.956;7.830;2023-07-09T08:26:38;5.53;;;5.00;;
2728;SDS011;1372;47.956;7.830;2023-07-09T08:29:07;5.83;;;4.97;;
2728;SDS011;1372;47.956;7.830;2023-07-09T08:31:35;5.60;;;5.10;;
2728;SDS011;1372;47.956;7.830;2023-07-09T08:34:05;4.77;;;4.47;;
2728;SDS011;1372;47.956;7.830;2023-07-09T08:36:38;5.03;;;4.43;;
2728;SDS011;1372;47.956;7.830;2023-07-09T08:39:06;6.60;;;4.87;;
2728;SDS011;1372;47.956;7.830;2023-07-09T08:41:41;5.77;;;5.30;;
2728;SDS011;1372;47.956;7.830;2023-07-09T08:44:25;4.93;;;4.53;;
2728;SDS011;1372;47.956;7.830;2023-07-09T08:47:14;5.20;;;4.80;;
2728;SDS011;1372;47.956;7.830;2023-07-09T08:49:50;6.10;;;5.60;;
2728;SDS011;1372;47.956;7.830;2023-07-09T08:52:25;5.60;;;5.00;;
2728;SDS011;1372;47.956;7.830;2023-07-09T08:55:01;6.63;;;4.60;;
2728;SDS011;1372;47.956;7.830;2023-07-09T08:57:36;5.60;;;5.20;;
2728;SDS011;1372;47.956;7.830;2023-07-09T09:00:12;6.73;;;5.13;;
2728;SDS011;1372;47.956;7.830;2023-07-09T09:02:46;5.13;;;4.63;;
2728;SDS011;1372;47.956;7.830;2023-07-09T09:05:20;5.60;;;5.20;;
2728;SDS011;1372;47.956;7.830;2023-07-09T09:07:51;5.70;;;5.20;;
2728;SDS011;1372;47.956;7.830;2023-07-09T09:10:31;5.97;;;5.40;;
2728;SDS011;1372;47.956;7.830;2023-07-09T09:13:05;6.53;;;5.50;;
2728;SDS011;1372;47.956;7.830;2023-07-09T09:15:39;6.70;;;6.00;;
2728;SDS011;1372;47.956;7.830;2023-07-09T09:18:19;5.60;;;5.10;;
2728;SDS011;1372;47.956;7.830;2023-07-09T09:20:55;5.20;;;4.70;;
2728;SDS011;1372;47.956;7.830;2023-07-09T09:23:28;5.70;;;4.73;;
2728;SDS011;1372;47.956;7.830;2023-07-09T09:26:13;7.70;;;4.80;;
2728;SDS011;1372;47.956;7.830;2023-07-09T09:28:49;5.53;;;5.03;;
2728;SDS011;1372;47.956;7.830;2023-07-09T09:31:18;5.30;;;4.80;;
2728;SDS011;1372;47.956;7.830;2023-07-09T09:33:47;6.10;;;4.60;;
2728;SDS011;1372;47.956;7.830;2023-07-09T09:36:19;5.50;;;5.00;;
2728;SDS011;1372;47.956;7.830;2023-07-09T09:38:50;5.53;;;5.03;;
2728;SDS011;1372;47.956;7.830;2023-07-09T09:41:23;4.90;;;4.50;;
2728;SDS011;1372;47.956;7.830;2023-07-09T09:43:54;5.13;;;4.73;;
2728;SDS011;1372;47.956;7.830;2023-07-09T09:46:25;5.30;;;4.80;;
2728;SDS011;1372;47.956;7.830;2023-07-09T09:48:55;4.50;;;3.90;;
2728;SDS011;1372;47.956;7.830;2023-07-09T09:51:29;5.60;;;5.10;;
2728;SDS011;1372;47.956;7.830;2023-07-09T09:53:59;5.37;;;4.77;;
2728;SDS011;1372;47.956;7.830;2023-07-09T09:56:34;5.67;;;5.17;;
2728;SDS011;1372;47.956;7.830;2023-07-09T09:59:04;4.90;;;4.50;;
2728;SDS011;1372;47.956;7.830;2023-07-09T10:01:34;4.47;;;4.10;;
2728;SDS011;1372;47.956;7.830;2023-07-09T10:04:04;5.53;;;4.90;;
2728;SDS011;1372;47.956;7.830;2023-07-09T10:06:37;5.53;;;4.90;;
2728;SDS011;1372;47.956;7.830;2023-07-09T10:09:15;4.90;;;4.50;;
2728;SDS011;1372;47.956;7.830;2023-07-09T10:12:01;4.80;;;4.40;;
2728;SDS011;1372;47.956;7.830;2023-07-09T10:14:43;5.10;;;4.60;;
2728;SDS011;1372;47.956;7.830;2023-07-09T10:17:22;3.97;;;3.57;;
2728;SDS011;1372;47.956;7.830;2023-07-09T10:20:03;4.67;;;4.37;;
2728;SDS011;1372;47.956;7.830;2023-07-09T10:22:49;4.90;;;4.50;;
2728;SDS011;1372;47.956;7.830;2023-07-09T10:25:29;4.37;;;4.07;;
2728;SDS011;1372;47.956;7.830;2023-07-09T10:31:11;5.13;;;4.73;;
2728;SDS011;1372;47.956;7.830;2023-07-09T10:33:49;4.47;;;4.07;;
2728;SDS011;1372;47.956;7.830;2023-07-09T10:36:35;4.60;;;4.20;;
2728;SDS011;1372;47.956;7.830;2023-07-09T10:39:19;4.30;;;3.90;;
2728;SDS011;1372;47.956;7.830;2023-07-09T10:41:55;5.03;;;4.30;;
2728;SDS011;1372;47.956;7.830;2023-07-09T10:44:31;5.17;;;4.70;;
2728;SDS011;1372;47.956;7.830;2023-07-09T10:47:04;5.83;;;4.53;;
2728;SDS011;1372;47.956;7.830;2023-07-09T10:49:38;5.03;;;4.57;;
2728;SDS011;1372;47.956;7.830;2023-07-09T10:52:19;4.90;;;4.30;;
2728;SDS011;1372;47.956;7.830;2023-07-09T10:54:55;4.70;;;4.27;;
2728;SDS011;1372;47.956;7.830;2023-07-09T10:57:30;5.77;;;4.47;;
2728;SDS011;1372;47.956;7.830;2023-07-09T11:00:15;5.10;;;4.60;;
2728;SDS011;1372;47.956;7.830;2023-07-09T11:02:50;5.07;;;4.57;;
2728;SDS011;1372;47.956;7.830;2023-07-09T11:05:28;5.80;;;4.93;;
2728;SDS011;1372;47.956;7.830;2023-07-09T11:07:59;4.20;;;3.90;;
2728;SDS011;1372;47.956;7.830;2023-07-09T11:10:34;7.13;;;4.47;;
2728;SDS011;1372;47.956;7.830;2023-07-09T11:13:10;4.90;;;4.40;;
2728;SDS011;1372;47.956;7.830;2023-07-09T11:15:48;5.80;;;5.30;;
2728;SDS011;1372;47.956;7.830;2023-07-09T11:18:21;6.00;;;5.43;;
2728;SDS011;1372;47.956;7.830;2023-07-09T11:20:58;5.00;;;4.50;;
2728;SDS011;1372;47.956;7.830;2023-07-09T11:23:37;5.10;;;4.60;;
2728;SDS011;1372;47.956;7.830;2023-07-09T11:26:12;4.63;;;4.13;;
2728;SDS011;1372;47.956;7.830;2023-07-09T11:28:50;4.67;;;4.27;;
2728;SDS011;1372;47.956;7.830;2023-07-09T11:31:24;6.40;;;4.23;;
2728;SDS011;1372;47.956;7.830;2023-07-09T11:34:08;5.13;;;4.73;;
2728;SDS011;1372;47.956;7.830;2023-07-09T11:36:49;5.00;;;4.67;;
2728;SDS011;1372;47.956;7.830;2023-07-09T11:39:29;5.20;;;4.80;;
2728;SDS011;1372;47.956;7.830;2023-07-09T11:42:27;5.60;;;5.10;;
2728;SDS011;1372;47.956;7.830;2023-07-09T11:45:02;4.67;;;4.27;;
2728;SDS011;1372;47.956;7.830;2023-07-09T11:47:40;5.13;;;4.73;;
2728;SDS011;1372;47.956;7.830;2023-07-09T11:50:22;5.40;;;4.60;;
2728;SDS011;1372;47.956;7.830;2023-07-09T11:52:55;5.57;;;4.60;;
2728;SDS011;1372;47.956;7.830;2023-07-09T11:55:28;5.27;;;4.73;;
2728;SDS011;1372;47.956;7.830;2023-07-09T11:58:02;5.13;;;4.63;;
2728;SDS011;1372;47.956;7.830;2023-07-09T12:00:38;5.70;;;5.20;;
2728;SDS011;1372;47.956;7.830;2023-07-09T12:03:11;5.10;;;4.70;;
2728;SDS011;1372;47.956;7.830;2023-07-09T12:05:49;5.20;;;4.70;;
2728;SDS011;1372;47.956;7.830;2023-07-09T12:08:20;7.50;;;5.07;;
2728;SDS011;1372;47.956;7.830;2023-07-09T12:10:55;6.00;;;5.30;;
2728;SDS011;1372;47.956;7.830;2023-07-09T12:13:24;4.80;;;4.37;;
2728;SDS011;1372;47.956;7.830;2023-07-09T12:15:53;6.63;;;6.03;;
2728;SDS011;1372;47.956;7.830;2023-07-09T12:18:23;6.23;;;5.60;;
2728;SDS011;1372;47.956;7.830;2023-07-09T12:20:53;6.40;;;5.73;;
2728;SDS011;1372;47.956;7.830;2023-07-09T12:23:23;4.90;;;4.50;;
2728;SDS011;1372;47.956;7.830;2023-07-09T12:25:59;5.40;;;5.00;;
2728;SDS011;1372;47.956;7.830;2023-07-09T12:28:30;5.97;;;5.43;;
2728;SDS011;1372;47.956;7.830;2023-07-09T12:30:59;6.43;;;4.83;;
2728;SDS011;1372;47.956;7.830;2023-07-09T12:33:31;5.70;;;5.20;;
2728;SDS011;1372;47.956;7.830;2023-07-09T12:36:01;5.67;;;5.17;;
2728;SDS011;1372;47.956;7.830;2023-07-09T12:38:38;5.63;;;5.20;;
2728;SDS011;1372;47.956;7.830;2023-07-09T12:41:15;5.47;;;4.63;;
2728;SDS011;1372;47.956;7.830;2023-07-09T12:43:48;5.90;;;5.30;;
2728;SDS011;1372;47.956;7.830;2023-07-09T12:46:19;6.63;;;5.50;;
2728;SDS011;1372;47.956;7.830;2023-07-09T12:48:50;6.73;;;4.97;;
2728;SDS011;1372;47.956;7.830;2023-07-09T12:51:23;5.00;;;4.50;;
2728;SDS011;1372;47.956;7.830;2023-07-09T12:54:00;5.97;;;5.20;;
2728;SDS011;1372;47.956;7.830;2023-07-09T12:56:32;5.40;;;4.97;;
2728;SDS011;1372;47.956;7.830;2023-07-09T12:59:07;5.63;;;5.20;;
2728;SDS011;1372;47.956;7.830;2023-07-09T13:01:49;4.83;;;4.47;;
2728;SDS011;1372;47.956;7.830;2023-07-09T13:04:29;6.80;;;5.20;;
2728;SDS011;1372;47.956;7.830;2023-07-09T13:07:01;6.57;;;4.53;;
2728;SDS011;1372;47.956;7.830;2023-07-09T13:09:31;5.13;;;4.63;;
2728;SDS011;1372;47.956;7.830;2023-07-09T13:12:05;5.43;;;5.00;;
2728;SDS011;1372;47.956;7.830;2023-07-09T13:14:38;5.00;;;4.60;;
2728;SDS011;1372;47.956;7.830;2023-07-09T13:17:08;8.43;;;4.97;;
2728;SDS011;1372;47.956;7.830;2023-07-09T13:19:41;5.13;;;4.63;;
2728;SDS011;1372;47.956;7.830;2023-07-09T13:22:10;5.77;;;5.27;;
2728;SDS011;1372;47.956;7.830;2023-07-09T13:24:42;5.30;;;4.77;;
2728;SDS011;1372;47.956;7.830;2023-07-09T13:27:13;4.97;;;4.57;;
2728;SDS011;1372;47.956;7.830;2023-07-09T13:29:44;5.00;;;4.60;;
2728;SDS011;1372;47.956;7.830;2023-07-09T13:32:14;4.80;;;4.40;;
2728;SDS011;1372;47.956;7.830;2023-07-09T13:34:45;5.33;;;4.83;;
2728;SDS011;1372;47.956;7.830;2023-07-09T13:37:17;5.20;;;4.70;;
2728;SDS011;1372;47.956;7.830;2023-07-09T13:39:46;8.70;;;5.60;;
2728;SDS011;1372;47.956;7.830;2023-07-09T13:42:16;5.33;;;4.90;;
2728;SDS011;1372;47.956;7.830;2023-07-09T13:44:46;7.03;;;5.20;;
2728;SDS011;1372;47.956;7.830;2023-07-09T13:47:17;5.13;;;4.67;;
2728;SDS011;1372;47.956;7.830;2023-07-09T13:49:48;5.37;;;4.87;;
2728;SDS011;1372;47.956;7.830;2023-07-09T13:52:19;5.00;;;4.57;;
2728;SDS011;1372;47.956;7.830;2023-07-09T13:54:54;4.67;;;4.37;;
2728;SDS011;1372;47.956;7.830;2023-07-09T13:57:23;4.80;;;4.50;;
2728;SDS011;1372;47.956;7.830;2023-07-09T13:59:52;5.10;;;4.70;;
2728;SDS011;1372;47.956;7.830;2023-07-09T14:02:23;5.57;;;5.07;;
2728;SDS011;1372;47.956;7.830;2023-07-09T14:05:00;5.10;;;4.67;;
2728;SDS011;1372;47.956;7.830;2023-07-09T14:07:44;5.70;;;4.90;;
2728;SDS011;1372;47.956;7.830;2023-07-09T14:10:14;5.07;;;4.67;;
2728;SDS011;1372;47.956;7.830;2023-07-09T14:12:45;6.03;;;5.60;;
2728;SDS011;1372;47.956;7.830;2023-07-09T14:15:16;5.30;;;4.80;;
2728;SDS011;1372;47.956;7.830;2023-07-09T14:17:47;5.30;;;4.90;;
2728;SDS011;1372;47.956;7.830;2023-07-09T14:20:18;6.60;;;4.60;;
2728;SDS011;1372;47.956;7.830;2023-07-09T14:22:48;5.23;;;4.27;;
2728;SDS011;1372;47.956;7.830;2023-07-09T14:25:18;5.57;;;4.57;;
2728;SDS011;1372;47.956;7.830;2023-07-09T14:27:50;5.40;;;4.90;;
2728;SDS011;1372;47.956;7.830;2023-07-09T14:30:21;5.27;;;4.77;;
2728;SDS011;1372;47.956;7.830;2023-07-09T14:32:54;4.70;;;4.30;;
2728;SDS011;1372;47.956;7.830;2023-07-09T14:35:26;6.17;;;5.10;;
2728;SDS011;1372;47.956;7.830;2023-07-09T14:37:55;4.32;;;3.97;;
2728;SDS011;1372;47.956;7.830;2023-07-09T14:40:26;4.05;;;3.58;;
2728;SDS011;1372;47.956;7.830;2023-07-09T14:42:55;4.70;;;4.25;;
2728;SDS011;1372;47.956;7.830;2023-07-09T14:45:26;4.38;;;4.07;;
2728;SDS011;1372;47.956;7.830;2023-07-09T14:47:57;6.25;;;4.35;;
2728;SDS011;1372;47.956;7.830;2023-07-09T14:50:27;5.78;;;4.38;;
2728;SDS011;1372;47.956;7.830;2023-07-09T14:52:57;4.35;;;3.95;;
2728;SDS011;1372;47.956;7.830;2023-07-09T14:55:26;4.95;;;4.00;;
2728;SDS011;1372;47.956;7.830;2023-07-09T14:57:56;3.97;;;3.63;;
2728;SDS011;1372;47.956;7.830;2023-07-09T15:00:27;4.18;;;3.85;;
2728;SDS011;1372;47.956;7.830;2023-07-09T15:02:59;4.10;;;3.67;;
2728;SDS011;1372;47.956;7.830;2023-07-09T15:05:29;4.20;;;3.83;;
2728;SDS011;1372;47.956;7.830;2023-07-09T15:07:58;4.70;;;3.90;;
2728;SDS011;1372;47.956;7.830;2023-07-09T15:10:28;4.18;;;3.88;;
2728;SDS011;1372;47.956;7.830;2023-07-09T15:12:58;5.85;;;4.15;;
2728;SDS011;1372;47.956;7.830;2023-07-09T15:15:28;5.32;;;4.40;;
2728;SDS011;1372;47.956;7.830;2023-07-09T15:17:59;4.25;;;3.72;;
2728;SDS011;1372;47.956;7.830;2023-07-09T15:20:39;4.20;;;3.75;;
2728;SDS011;1372;47.956;7.830;2023-07-09T15:23:17;4.57;;;4.28;;
2728;SDS011;1372;47.956;7.830;2023-07-09T15:25:49;3.80;;;3.50;;
2728;SDS011;1372;47.956;7.830;2023-07-09T15:28:19;4.43;;;3.80;;
2728;SDS011;1372;47.956;7.830;2023-07-09T15:30:48;4.35;;;3.95;;
2728;SDS011;1372;47.956;7.830;2023-07-09T15:33:18;3.88;;;3.58;;
2728;SDS011;1372;47.956;7.830;2023-07-09T15:35:49;3.67;;;3.38;;
2728;SDS011;1372;47.956;7.830;2023-07-09T15:38:25;4.97;;;4.57;;
2728;SDS011;1372;47.956;7.830;2023-07-09T15:40:57;4.40;;;4.00;;
2728;SDS011;1372;47.956;7.830;2023-07-09T15:43:26;3.92;;;3.63;;
2728;SDS011;1372;47.956;7.830;2023-07-09T15:45:57;4.57;;;4.10;;
2728;SDS011;1372;47.956;7.830;2023-07-09T15:48:30;4.25;;;3.83;;
2728;SDS011;1372;47.956;7.830;2023-07-09T15:51:03;5.28;;;4.07;;
2728;SDS011;1372;47.956;7.830;2023-07-09T15:53:33;5.00;;;4.20;;
2728;SDS011;1372;47.956;7.830;2023-07-09T15:56:02;4.88;;;4.38;;
2728;SDS011;1372;47.956;7.830;2023-07-09T15:58:36;4.15;;;3.58;;